createdAt,value
2022-08-17T00:01:53.248Z,20.5
2022-08-17T00:02:56.432Z,20.4
2022-08-17T00:05:00.243Z,20.4
2022-08-17T00:07:04.065Z,20.4
2022-08-17T00:09:07.931Z,20.4
2022-08-17T00:11:14.944Z,20.4
2022-08-17T00:13:18.757Z,20.4
2022-08-17T00:15:22.597Z,20.4
2022-08-17T00:17:26.381Z,20.4
2022-08-17T00:19:30.160Z,20.4
2022-08-17T00:21:36.137Z,20.4
2022-08-17T00:23:37.763Z,20.3
2022-08-17T00:25:44.836Z,20.4
2022-08-17T00:27:48.664Z,20.3
2022-08-17T00:29:52.449Z,20.3
2022-08-17T00:31:56.250Z,20.3
2022-08-17T00:34:00.061Z,20.2
2022-08-17T00:36:03.870Z,20.2
2022-08-17T00:38:07.675Z,20.1
2022-08-17T00:40:14.829Z,20.1
2022-08-17T00:42:18.572Z,20.1
2022-08-17T00:44:22.327Z,20.1
2022-08-17T00:46:26.162Z,20
2022-08-17T00:48:30.791Z,20
2022-08-17T00:50:33.767Z,20
2022-08-17T00:56:48.488Z,20
2022-08-17T01:00:02.503Z,19.9
2022-08-17T01:01:59.632Z,19.9
2022-08-17T01:04:03.428Z,19.9
2022-08-17T01:06:07.249Z,19.9
2022-08-17T01:08:16.002Z,19.8
2022-08-17T01:10:58.843Z,19.8
2022-08-17T01:12:23.583Z,19.7
2022-08-17T01:14:27.378Z,19.7
2022-08-17T01:16:31.199Z,19.6
2022-08-17T01:20:47.919Z,19.6
2022-08-17T01:22:45.924Z,19.5
2022-08-17T01:24:49.733Z,19.5
2022-08-17T01:31:01.163Z,19.4
2022-08-17T01:35:08.805Z,19.4
2022-08-17T01:37:15.916Z,19.4
2022-08-17T01:39:19.730Z,19.4
2022-08-17T01:41:23.587Z,19.4
2022-08-17T01:43:27.337Z,19.4
2022-08-17T01:45:31.152Z,19.3
2022-08-17T01:47:36.039Z,19.3
2022-08-17T01:49:38.815Z,19.3
2022-08-17T01:51:45.902Z,19.3
2022-08-17T01:53:49.754Z,19.2
2022-08-17T01:55:53.565Z,19.2
2022-08-17T01:56:57.104Z,19.3
2022-08-17T02:03:08.610Z,19.2
2022-08-17T02:07:19.525Z,19.2
2022-08-17T02:11:27.138Z,19.2
2022-08-17T02:13:30.992Z,19.2
2022-08-17T02:17:38.660Z,19.2
2022-08-17T02:21:49.588Z,19.1
2022-08-17T02:25:57.255Z,19.1
2022-08-17T02:32:08.738Z,19.1
2022-08-17T02:34:15.863Z,19.1
2022-08-17T02:36:21.973Z,19.1
2022-08-17T02:38:23.545Z,19.1
2022-08-17T02:40:32.797Z,19.1
2022-08-17T02:42:31.167Z,19.1
2022-08-17T02:44:39.405Z,19.1
2022-08-17T02:46:38.857Z,19.2
2022-08-17T02:48:45.961Z,19.2
2022-08-17T02:50:49.798Z,19.2
2022-08-17T02:55:18.117Z,19.2
2022-08-17T02:57:21.964Z,19.2
2022-08-17T02:59:25.759Z,19.2
2022-08-17T03:01:32.914Z,19.2
2022-08-17T03:03:36.713Z,19.2
2022-08-17T03:05:40.550Z,19.3
2022-08-17T03:07:44.376Z,19.3
2022-08-17T03:09:48.199Z,19.3
2022-08-17T03:11:53.158Z,19.3
2022-08-17T03:13:55.868Z,19.3
2022-08-17T03:16:02.963Z,19.4
2022-08-17T03:18:06.813Z,19.4
2022-08-17T03:20:10.623Z,19.4
2022-08-17T03:22:35.672Z,19.4
2022-08-17T03:24:18.279Z,19.4
2022-08-17T03:26:22.094Z,19.4
2022-08-17T03:28:25.771Z,19.3
2022-08-17T03:30:32.855Z,19.3
2022-08-17T03:32:36.687Z,19.3
2022-08-17T03:34:40.503Z,19.3
2022-08-17T03:36:44.335Z,19.3
2022-08-17T03:38:48.176Z,19.3
2022-08-17T03:40:56.290Z,19.3
2022-08-17T03:42:55.822Z,19.3
2022-08-17T03:45:02.918Z,19.3
2022-08-17T03:50:14.119Z,19.2
2022-08-17T03:52:17.945Z,19.3
2022-08-17T03:54:21.767Z,19.3
2022-08-17T03:56:25.590Z,19.3
2022-08-17T03:58:32.727Z,19.3
2022-08-17T04:00:36.523Z,19.3
2022-08-17T04:02:40.368Z,19.3
2022-08-17T04:04:44.208Z,19.3
2022-08-17T04:08:51.860Z,19.3
2022-08-17T04:13:02.810Z,19.3
2022-08-17T04:15:06.640Z,19.3
2022-08-17T04:17:10.479Z,19.3
2022-08-17T04:19:14.289Z,19.3
2022-08-17T04:21:18.131Z,19.3
2022-08-17T04:23:21.954Z,19.3
2022-08-17T04:25:25.767Z,19.3
2022-08-17T04:27:32.905Z,19.3
2022-08-17T04:33:44.359Z,19.3
2022-08-17T04:37:52.011Z,19.2
2022-08-17T04:39:57.103Z,19.2
2022-08-17T04:42:02.954Z,19.2
2022-08-17T04:44:06.789Z,19.2
2022-08-17T04:46:10.606Z,19.2
2022-08-17T04:47:14.188Z,19.3
2022-08-17T04:49:17.997Z,19.3
2022-08-17T04:51:21.818Z,19.3
2022-08-17T04:53:25.645Z,19.3
2022-08-17T04:55:32.769Z,19.3
2022-08-17T05:01:44.281Z,19.3
2022-08-17T05:05:51.877Z,19.4
2022-08-17T05:10:02.840Z,19.5
2022-08-17T05:16:14.306Z,19.5
2022-08-17T05:18:18.129Z,19.5
2022-08-17T05:20:21.950Z,19.5
2022-08-17T05:22:25.762Z,19.6
2022-08-17T05:24:40.731Z,19.7
2022-08-17T05:26:36.733Z,19.7
2022-08-17T05:28:40.520Z,19.8
2022-08-17T05:30:44.348Z,19.8
2022-08-17T05:32:48.267Z,19.9
2022-08-17T05:34:51.995Z,19.9
2022-08-17T05:36:55.848Z,19.9
2022-08-17T05:39:02.942Z,20
2022-08-17T05:41:06.763Z,20
2022-08-17T05:44:14.135Z,20.1
2022-08-17T05:46:17.963Z,20.1
2022-08-17T05:48:21.794Z,20.1
2022-08-17T05:50:27.132Z,20
2022-08-17T05:52:32.692Z,19.9
2022-08-17T05:54:36.512Z,19.9
2022-08-17T05:56:40.341Z,19.9
2022-08-17T05:58:44.135Z,19.7
2022-08-17T06:04:55.597Z,19.7
2022-08-17T06:07:02.671Z,19.8
2022-08-17T06:09:06.475Z,19.8
2022-08-17T06:11:10.295Z,19.8
2022-08-17T06:13:14.136Z,19.8
2022-08-17T06:15:17.958Z,19.8
2022-08-17T06:17:21.787Z,19.8
2022-08-17T06:19:25.642Z,19.9
2022-08-17T06:21:32.710Z,20
2022-08-17T06:23:36.565Z,20
2022-08-17T06:25:40.381Z,20.1
2022-08-17T06:27:44.197Z,20.4
2022-08-17T06:29:48.007Z,20.8
2022-08-17T06:31:51.863Z,21.8
2022-08-17T06:33:55.640Z,22.5
2022-08-17T06:36:02.719Z,23
2022-08-17T06:38:06.546Z,22.9
2022-08-17T06:40:10.405Z,22
2022-08-17T06:43:00.875Z,21.2
2022-08-17T06:44:43.492Z,21.1
2022-08-17T06:52:55.173Z,20.9
2022-08-17T06:54:58.964Z,20.9
2022-08-17T06:57:02.782Z,20.9
2022-08-17T06:59:06.572Z,20.9
2022-08-17T07:01:10.525Z,20.9
2022-08-17T07:05:22.911Z,21
2022-08-17T07:07:26.647Z,21.1
2022-08-17T07:09:30.485Z,21.2
2022-08-17T07:11:34.435Z,21.2
2022-08-17T07:13:38.057Z,21.3
2022-08-17T07:15:41.849Z,21.2
2022-08-17T07:17:48.947Z,21.2
2022-08-17T07:19:43.641Z,21.2
2022-08-17T07:58:47.243Z,22.4
2022-08-17T19:12:17.510Z,19.9
2022-08-17T19:14:21.354Z,19.8
2022-08-17T19:16:25.120Z,19.8
2022-08-17T19:18:49.867Z,19.8
2022-08-17T19:20:53.699Z,19.8
2022-08-17T19:22:57.535Z,19.8
2022-08-17T19:25:04.650Z,19.8
2022-08-17T19:27:08.482Z,19.8
2022-08-17T19:29:12.289Z,19.8
2022-08-17T19:31:16.069Z,19.9
2022-08-17T19:33:19.913Z,19.8
2022-08-17T19:35:23.718Z,19.8
2022-08-17T19:37:27.502Z,19.7
2022-08-17T19:39:37.974Z,19.7
2022-08-17T19:41:42.911Z,19.6
2022-08-17T19:43:44.099Z,19.6
2022-08-17T19:45:46.055Z,19.6
2022-08-17T19:47:55.186Z,19.7
2022-08-17T19:49:53.721Z,19.6
2022-08-17T19:51:57.530Z,19.7
2022-08-17T19:54:06.254Z,19.7
2022-08-17T19:56:08.427Z,19.7
2022-08-17T19:58:12.277Z,19.7
2022-08-17T20:00:16.085Z,19.8
2022-08-17T20:02:19.871Z,19.8
2022-08-17T20:04:27.238Z,19.8
2022-08-17T20:06:27.507Z,19.8
2022-08-17T20:10:38.430Z,19.8
2022-08-17T20:12:42.250Z,19.8
2022-08-17T20:13:45.800Z,19.8
2022-08-17T20:15:49.621Z,19.8
2022-08-17T20:17:53.451Z,19.8
2022-08-17T20:19:57.250Z,19.8
2022-08-17T20:24:08.155Z,19.9
2022-08-17T20:30:19.588Z,19.9
2022-08-17T20:32:23.407Z,19.9
2022-08-17T20:42:45.778Z,19.9
2022-08-17T20:48:57.253Z,19.8
2022-08-17T20:53:08.185Z,19.7
2022-08-17T20:59:19.622Z,19.7
2022-08-17T21:01:23.492Z,19.6
2022-08-17T21:03:27.252Z,19.6
2022-08-17T21:07:42.860Z,19.6
2022-08-17T21:09:42.022Z,19.6
2022-08-17T21:10:45.533Z,19.5
2022-08-17T21:12:49.343Z,19.6
2022-08-17T21:14:53.166Z,19.6
2022-08-17T21:16:56.992Z,19.5
2022-08-17T21:19:04.106Z,19.4
2022-08-17T21:21:12.060Z,19.4
2022-08-17T21:25:15.545Z,19.3
2022-08-17T21:27:19.342Z,19.2
2022-08-17T21:29:32.064Z,19.1
2022-08-17T21:31:26.994Z,19.1
2022-08-17T21:35:38.950Z,19
2022-08-17T21:41:49.356Z,18.9
2022-08-17T21:45:57.696Z,19
2022-08-17T21:50:08.044Z,18.9
2022-08-17T21:54:15.569Z,19
2022-08-17T21:56:19.374Z,19
2022-08-17T22:00:27.051Z,18.9
2022-08-17T22:02:34.137Z,18.9
2022-08-17T22:04:37.949Z,18.9
2022-08-17T22:09:49.149Z,18.9
2022-08-17T22:11:52.956Z,18.9
2022-08-17T22:16:03.915Z,18.9
2022-08-17T22:18:07.713Z,18.8
2022-08-17T22:20:11.506Z,18.8
2022-08-17T22:22:15.359Z,18.8
2022-08-17T22:24:19.147Z,18.8
2022-08-17T22:28:26.838Z,18.7
2022-08-17T22:30:33.930Z,18.7
2022-08-17T22:32:37.759Z,18.7
2022-08-17T22:34:41.586Z,18.7
2022-08-17T22:36:45.388Z,18.8
2022-08-17T22:38:49.250Z,18.7
2022-08-17T22:40:53.049Z,18.7
2022-08-17T22:42:56.842Z,18.7
2022-08-17T22:45:03.962Z,18.8
2022-08-17T22:47:11.492Z,18.7
2022-08-17T22:49:11.580Z,18.7
2022-08-17T22:55:23.110Z,18.6
2022-08-17T22:57:26.947Z,18.6
2022-08-17T23:01:37.881Z,18.6
2022-08-17T23:03:41.693Z,18.6
2022-08-17T23:06:09.911Z,18.7
2022-08-17T23:08:13.732Z,18.6
2022-08-17T23:10:17.546Z,18.6
2022-08-17T23:14:28.476Z,18.7
2022-08-17T23:20:39.929Z,18.6
2022-08-17T23:24:47.591Z,18.5
2022-08-17T23:26:54.705Z,18.5
2022-08-17T23:28:58.570Z,18.5
2022-08-17T23:31:02.367Z,18.4
2022-08-17T23:33:06.228Z,18.4
2022-08-17T23:35:10.047Z,18.3
2022-08-17T23:37:13.856Z,18.3
2022-08-17T23:39:27.884Z,18.3
2022-08-17T23:41:24.907Z,18.3
2022-08-17T23:43:28.649Z,18.3
2022-08-17T23:45:32.491Z,18.3
2022-08-17T23:49:40.161Z,18.2
2022-08-17T23:53:47.839Z,18.2
2022-08-17T23:57:58.814Z,18.2
